sensor_id;sensor_type;location;lat;lon;timestamp;P1;durP1;ratioP1;P2;durP2;ratioP2
3637;SDS011;1835;50.068;8.154;2022-07-23T00:02:00;14.03;;;5.07;;
3637;SDS011;1835;50.068;8.154;2022-07-23T00:04:29;4.37;;;3.77;;
3637;SDS011;1835;50.068;8.154;2022-07-23T00:06:57;8.07;;;5.13;;
3637;SDS011;1835;50.068;8.154;2022-07-23T00:09:25;6.53;;;4.83;;
3637;SDS011;1835;50.068;8.154;2022-07-23T00:11:57;6.80;;;3.80;;
3637;SDS011;1835;50.068;8.154;2022-07-23T00:14:25;5.37;;;4.40;;
3637;SDS011;1835;50.068;8.154;2022-07-23T00:16:55;5.83;;;4.47;;
3637;SDS011;1835;50.068;8.154;2022-07-23T00:19:23;8.80;;;4.83;;
3637;SDS011;1835;50.068;8.154;2022-07-23T00:21:51;5.93;;;4.30;;
3637;SDS011;1835;50.068;8.154;2022-07-23T00:24:19;8.80;;;4.80;;
3637;SDS011;1835;50.068;8.154;2022-07-23T00:26:47;7.50;;;4.80;;
3637;SDS011;1835;50.068;8.154;2022-07-23T00:29:15;4.97;;;4.47;;
3637;SDS011;1835;50.068;8.154;2022-07-23T00:31:43;4.60;;;4.10;;
3637;SDS011;1835;50.068;8.154;2022-07-23T00:34:14;6.37;;;4.73;;
3637;SDS011;1835;50.068;8.154;2022-07-23T00:36:42;8.00;;;4.53;;
3637;SDS011;1835;50.068;8.154;2022-07-23T00:39:11;7.30;;;4.50;;
3637;SDS011;1835;50.068;8.154;2022-07-23T00:41:40;5.47;;;4.60;;
3637;SDS011;1835;50.068;8.154;2022-07-23T00:44:14;6.20;;;4.87;;
3637;SDS011;1835;50.068;8.154;2022-07-23T00:46:49;6.33;;;4.77;;
3637;SDS011;1835;50.068;8.154;2022-07-23T00:49:21;9.93;;;5.03;;
3637;SDS011;1835;50.068;8.154;2022-07-23T00:51:52;8.00;;;5.67;;
3637;SDS011;1835;50.068;8.154;2022-07-23T00:54:22;5.23;;;4.50;;
3637;SDS011;1835;50.068;8.154;2022-07-23T00:56:53;6.87;;;5.87;;
3637;SDS011;1835;50.068;8.154;2022-07-23T00:59:22;5.57;;;5.07;;
3637;SDS011;1835;50.068;8.154;2022-07-23T01:01:51;10.47;;;5.03;;
3637;SDS011;1835;50.068;8.154;2022-07-23T01:04:19;6.17;;;5.57;;
3637;SDS011;1835;50.068;8.154;2022-07-23T01:06:48;7.60;;;5.00;;
3637;SDS011;1835;50.068;8.154;2022-07-23T01:09:17;7.93;;;5.47;;
3637;SDS011;1835;50.068;8.154;2022-07-23T01:11:46;7.40;;;4.97;;
3637;SDS011;1835;50.068;8.154;2022-07-23T01:14:16;8.07;;;5.37;;
3637;SDS011;1835;50.068;8.154;2022-07-23T01:16:46;5.80;;;4.70;;
3637;SDS011;1835;50.068;8.154;2022-07-23T01:19:17;9.47;;;5.57;;
3637;SDS011;1835;50.068;8.154;2022-07-23T01:21:47;9.63;;;5.70;;
3637;SDS011;1835;50.068;8.154;2022-07-23T01:24:21;10.40;;;5.53;;
3637;SDS011;1835;50.068;8.154;2022-07-23T01:26:49;10.27;;;6.17;;
3637;SDS011;1835;50.068;8.154;2022-07-23T01:29:18;8.00;;;5.73;;
3637;SDS011;1835;50.068;8.154;2022-07-23T01:31:47;6.63;;;5.30;;
3637;SDS011;1835;50.068;8.154;2022-07-23T01:34:16;7.90;;;5.37;;
3637;SDS011;1835;50.068;8.154;2022-07-23T01:36:44;12.00;;;5.80;;
3637;SDS011;1835;50.068;8.154;2022-07-23T01:39:13;6.70;;;5.20;;
3637;SDS011;1835;50.068;8.154;2022-07-23T01:41:43;7.60;;;5.13;;
3637;SDS011;1835;50.068;8.154;2022-07-23T01:44:16;10.57;;;5.67;;
3637;SDS011;1835;50.068;8.154;2022-07-23T01:46:44;9.83;;;6.10;;
3637;SDS011;1835;50.068;8.154;2022-07-23T01:49:13;8.23;;;5.87;;
3637;SDS011;1835;50.068;8.154;2022-07-23T01:51:41;11.47;;;6.80;;
3637;SDS011;1835;50.068;8.154;2022-07-23T01:54:25;8.10;;;6.20;;
3637;SDS011;1835;50.068;8.154;2022-07-23T01:56:56;9.50;;;6.17;;
3637;SDS011;1835;50.068;8.154;2022-07-23T01:59:25;7.90;;;5.90;;
3637;SDS011;1835;50.068;8.154;2022-07-23T02:01:54;9.53;;;6.03;;
3637;SDS011;1835;50.068;8.154;2022-07-23T02:04:22;15.97;;;6.50;;
3637;SDS011;1835;50.068;8.154;2022-07-23T02:06:52;13.70;;;7.60;;
3637;SDS011;1835;50.068;8.154;2022-07-23T02:09:20;13.87;;;6.40;;
3637;SDS011;1835;50.068;8.154;2022-07-23T02:11:49;10.53;;;6.23;;
3637;SDS011;1835;50.068;8.154;2022-07-23T02:14:18;11.73;;;6.10;;
3637;SDS011;1835;50.068;8.154;2022-07-23T02:16:47;10.50;;;5.80;;
3637;SDS011;1835;50.068;8.154;2022-07-23T02:19:15;8.43;;;6.07;;
3637;SDS011;1835;50.068;8.154;2022-07-23T02:21:43;10.17;;;6.63;;
3637;SDS011;1835;50.068;8.154;2022-07-23T02:24:11;16.90;;;6.60;;
3637;SDS011;1835;50.068;8.154;2022-07-23T02:26:39;11.40;;;6.73;;
3637;SDS011;1835;50.068;8.154;2022-07-23T02:29:08;12.23;;;6.67;;
3637;SDS011;1835;50.068;8.154;2022-07-23T02:31:37;17.70;;;6.67;;
3637;SDS011;1835;50.068;8.154;2022-07-23T02:34:06;8.93;;;5.97;;
3637;SDS011;1835;50.068;8.154;2022-07-23T02:36:37;7.00;;;5.47;;
3637;SDS011;1835;50.068;8.154;2022-07-23T02:39:06;10.90;;;6.40;;
3637;SDS011;1835;50.068;8.154;2022-07-23T02:41:34;9.10;;;6.50;;
3637;SDS011;1835;50.068;8.154;2022-07-23T02:44:03;10.00;;;6.23;;
3637;SDS011;1835;50.068;8.154;2022-07-23T02:46:31;11.20;;;7.30;;
3637;SDS011;1835;50.068;8.154;2022-07-23T02:49:00;12.80;;;5.73;;
3637;SDS011;1835;50.068;8.154;2022-07-23T02:51:31;10.17;;;6.57;;
3637;SDS011;1835;50.068;8.154;2022-07-23T02:54:00;11.50;;;6.60;;
3637;SDS011;1835;50.068;8.154;2022-07-23T02:56:28;20.00;;;6.63;;
3637;SDS011;1835;50.068;8.154;2022-07-23T02:58:56;8.70;;;6.03;;
3637;SDS011;1835;50.068;8.154;2022-07-23T03:01:25;10.37;;;6.50;;
3637;SDS011;1835;50.068;8.154;2022-07-23T03:03:53;11.40;;;7.10;;
3637;SDS011;1835;50.068;8.154;2022-07-23T03:06:22;14.27;;;6.50;;
3637;SDS011;1835;50.068;8.154;2022-07-23T03:08:50;10.50;;;6.30;;
3637;SDS011;1835;50.068;8.154;2022-07-23T03:11:19;9.53;;;6.53;;
3637;SDS011;1835;50.068;8.154;2022-07-23T03:13:47;10.97;;;5.90;;
3637;SDS011;1835;50.068;8.154;2022-07-23T03:16:15;7.87;;;5.90;;
3637;SDS011;1835;50.068;8.154;2022-07-23T03:18:43;7.67;;;6.50;;
3637;SDS011;1835;50.068;8.154;2022-07-23T03:21:11;7.70;;;5.80;;
3637;SDS011;1835;50.068;8.154;2022-07-23T03:23:40;8.77;;;5.40;;
3637;SDS011;1835;50.068;8.154;2022-07-23T03:26:09;7.60;;;5.60;;
3637;SDS011;1835;50.068;8.154;2022-07-23T03:28:37;6.87;;;5.43;;
3637;SDS011;1835;50.068;8.154;2022-07-23T03:31:05;8.23;;;5.63;;
3637;SDS011;1835;50.068;8.154;2022-07-23T03:33:33;8.77;;;5.97;;
3637;SDS011;1835;50.068;8.154;2022-07-23T03:36:02;7.87;;;6.20;;
3637;SDS011;1835;50.068;8.154;2022-07-23T03:38:34;9.03;;;6.53;;
3637;SDS011;1835;50.068;8.154;2022-07-23T03:41:04;14.20;;;6.10;;
3637;SDS011;1835;50.068;8.154;2022-07-23T03:43:32;6.40;;;5.80;;
3637;SDS011;1835;50.068;8.154;2022-07-23T03:46:00;10.27;;;6.80;;
3637;SDS011;1835;50.068;8.154;2022-07-23T03:48:29;12.93;;;6.87;;
3637;SDS011;1835;50.068;8.154;2022-07-23T03:50:57;8.30;;;6.40;;
3637;SDS011;1835;50.068;8.154;2022-07-23T03:53:25;12.00;;;6.53;;
3637;SDS011;1835;50.068;8.154;2022-07-23T03:55:53;13.23;;;6.17;;
3637;SDS011;1835;50.068;8.154;2022-07-23T03:58:23;8.60;;;5.70;;
3637;SDS011;1835;50.068;8.154;2022-07-23T04:00:51;12.53;;;7.43;;
3637;SDS011;1835;50.068;8.154;2022-07-23T04:03:20;9.87;;;6.70;;
3637;SDS011;1835;50.068;8.154;2022-07-23T04:05:48;12.43;;;7.03;;
3637;SDS011;1835;50.068;8.154;2022-07-23T04:08:16;12.73;;;6.93;;
3637;SDS011;1835;50.068;8.154;2022-07-23T04:10:44;13.27;;;7.80;;
3637;SDS011;1835;50.068;8.154;2022-07-23T04:13:12;13.13;;;8.00;;
3637;SDS011;1835;50.068;8.154;2022-07-23T04:15:42;10.17;;;6.30;;
3637;SDS011;1835;50.068;8.154;2022-07-23T04:18:10;14.03;;;7.40;;
3637;SDS011;1835;50.068;8.154;2022-07-23T04:20:38;15.23;;;7.47;;
3637;SDS011;1835;50.068;8.154;2022-07-23T04:23:06;8.50;;;6.30;;
3637;SDS011;1835;50.068;8.154;2022-07-23T04:25:35;13.70;;;7.50;;
3637;SDS011;1835;50.068;8.154;2022-07-23T04:28:04;9.00;;;6.87;;
3637;SDS011;1835;50.068;8.154;2022-07-23T04:30:32;9.87;;;6.83;;
3637;SDS011;1835;50.068;8.154;2022-07-23T04:33:01;10.70;;;7.07;;
3637;SDS011;1835;50.068;8.154;2022-07-23T04:35:32;10.70;;;7.00;;
3637;SDS011;1835;50.068;8.154;2022-07-23T04:38:01;12.20;;;7.83;;
3637;SDS011;1835;50.068;8.154;2022-07-23T04:40:30;16.40;;;7.50;;
3637;SDS011;1835;50.068;8.154;2022-07-23T04:42:58;13.53;;;7.80;;
3637;SDS011;1835;50.068;8.154;2022-07-23T04:45:26;13.00;;;7.47;;
3637;SDS011;1835;50.068;8.154;2022-07-23T04:47:55;7.60;;;6.10;;
3637;SDS011;1835;50.068;8.154;2022-07-23T04:50:25;8.87;;;7.00;;
3637;SDS011;1835;50.068;8.154;2022-07-23T04:52:53;8.27;;;7.07;;
3637;SDS011;1835;50.068;8.154;2022-07-23T04:55:21;14.00;;;7.30;;
3637;SDS011;1835;50.068;8.154;2022-07-23T04:57:49;11.03;;;7.13;;
3637;SDS011;1835;50.068;8.154;2022-07-23T05:00:17;12.13;;;7.00;;
3637;SDS011;1835;50.068;8.154;2022-07-23T05:02:45;10.43;;;7.50;;
3637;SDS011;1835;50.068;8.154;2022-07-23T05:05:13;14.70;;;8.13;;
3637;SDS011;1835;50.068;8.154;2022-07-23T05:07:43;16.40;;;6.83;;
3637;SDS011;1835;50.068;8.154;2022-07-23T05:10:11;12.87;;;7.03;;
3637;SDS011;1835;50.068;8.154;2022-07-23T05:12:39;11.13;;;7.20;;
3637;SDS011;1835;50.068;8.154;2022-07-23T05:15:07;9.30;;;7.30;;
3637;SDS011;1835;50.068;8.154;2022-07-23T05:17:36;9.77;;;6.90;;
3637;SDS011;1835;50.068;8.154;2022-07-23T05:20:04;12.10;;;7.50;;
3637;SDS011;1835;50.068;8.154;2022-07-23T05:22:33;9.13;;;6.40;;
3637;SDS011;1835;50.068;8.154;2022-07-23T05:25:03;11.47;;;6.90;;
3637;SDS011;1835;50.068;8.154;2022-07-23T05:27:33;15.60;;;7.13;;
3637;SDS011;1835;50.068;8.154;2022-07-23T05:30:01;11.43;;;6.83;;
3637;SDS011;1835;50.068;8.154;2022-07-23T05:32:30;8.80;;;6.30;;
3637;SDS011;1835;50.068;8.154;2022-07-23T05:34:59;11.83;;;7.20;;
3637;SDS011;1835;50.068;8.154;2022-07-23T05:37:28;8.37;;;6.67;;
3637;SDS011;1835;50.068;8.154;2022-07-23T05:39:58;9.13;;;6.57;;
3637;SDS011;1835;50.068;8.154;2022-07-23T05:42:32;13.20;;;6.43;;
3637;SDS011;1835;50.068;8.154;2022-07-23T05:45:00;9.47;;;6.90;;
3637;SDS011;1835;50.068;8.154;2022-07-23T05:47:30;8.90;;;6.83;;
3637;SDS011;1835;50.068;8.154;2022-07-23T05:50:08;9.90;;;6.90;;
3637;SDS011;1835;50.068;8.154;2022-07-23T05:52:38;8.93;;;6.80;;
3637;SDS011;1835;50.068;8.154;2022-07-23T05:55:08;11.90;;;7.67;;
3637;SDS011;1835;50.068;8.154;2022-07-23T05:57:38;11.60;;;6.80;;
3637;SDS011;1835;50.068;8.154;2022-07-23T06:00:07;11.23;;;7.10;;
3637;SDS011;1835;50.068;8.154;2022-07-23T06:02:38;10.27;;;6.70;;
3637;SDS011;1835;50.068;8.154;2022-07-23T06:05:07;10.93;;;6.63;;
3637;SDS011;1835;50.068;8.154;2022-07-23T06:07:36;13.53;;;8.97;;
3637;SDS011;1835;50.068;8.154;2022-07-23T06:10:05;8.63;;;6.57;;
3637;SDS011;1835;50.068;8.154;2022-07-23T06:12:36;13.37;;;6.60;;
3637;SDS011;1835;50.068;8.154;2022-07-23T06:15:04;10.40;;;7.37;;
3637;SDS011;1835;50.068;8.154;2022-07-23T06:17:36;17.63;;;7.07;;
3637;SDS011;1835;50.068;8.154;2022-07-23T06:20:06;21.40;;;6.63;;
3637;SDS011;1835;50.068;8.154;2022-07-23T06:22:36;11.23;;;7.93;;
3637;SDS011;1835;50.068;8.154;2022-07-23T06:25:05;9.10;;;5.80;;
3637;SDS011;1835;50.068;8.154;2022-07-23T06:27:44;11.27;;;6.47;;
3637;SDS011;1835;50.068;8.154;2022-07-23T06:30:13;9.00;;;6.90;;
3637;SDS011;1835;50.068;8.154;2022-07-23T06:32:44;8.23;;;6.40;;
3637;SDS011;1835;50.068;8.154;2022-07-23T06:35:12;8.43;;;6.90;;
3637;SDS011;1835;50.068;8.154;2022-07-23T06:37:40;6.50;;;5.17;;
3637;SDS011;1835;50.068;8.154;2022-07-23T06:40:10;10.17;;;5.33;;
3637;SDS011;1835;50.068;8.154;2022-07-23T06:42:39;8.60;;;5.80;;
3637;SDS011;1835;50.068;8.154;2022-07-23T06:45:07;6.83;;;6.13;;
3637;SDS011;1835;50.068;8.154;2022-07-23T06:47:36;6.83;;;5.23;;
3637;SDS011;1835;50.068;8.154;2022-07-23T06:50:05;7.33;;;5.70;;
3637;SDS011;1835;50.068;8.154;2022-07-23T06:52:33;8.67;;;5.30;;
3637;SDS011;1835;50.068;8.154;2022-07-23T06:55:07;5.70;;;5.10;;
3637;SDS011;1835;50.068;8.154;2022-07-23T06:57:37;6.97;;;5.20;;
3637;SDS011;1835;50.068;8.154;2022-07-23T07:00:06;10.83;;;6.87;;
3637;SDS011;1835;50.068;8.154;2022-07-23T07:02:35;6.70;;;5.73;;
3637;SDS011;1835;50.068;8.154;2022-07-23T07:05:04;8.13;;;5.17;;
3637;SDS011;1835;50.068;8.154;2022-07-23T07:07:32;6.73;;;5.57;;
3637;SDS011;1835;50.068;8.154;2022-07-23T07:10:01;5.33;;;4.60;;
3637;SDS011;1835;50.068;8.154;2022-07-23T07:12:31;5.97;;;5.37;;
3637;SDS011;1835;50.068;8.154;2022-07-23T07:14:59;4.60;;;4.23;;
3637;SDS011;1835;50.068;8.154;2022-07-23T07:17:27;5.90;;;4.70;;
3637;SDS011;1835;50.068;8.154;2022-07-23T07:19:55;6.90;;;5.43;;
3637;SDS011;1835;50.068;8.154;2022-07-23T07:22:23;8.67;;;4.80;;
3637;SDS011;1835;50.068;8.154;2022-07-23T07:24:51;11.63;;;4.70;;
3637;SDS011;1835;50.068;8.154;2022-07-23T07:27:19;5.70;;;4.67;;
3637;SDS011;1835;50.068;8.154;2022-07-23T07:29:49;6.90;;;4.70;;
3637;SDS011;1835;50.068;8.154;2022-07-23T07:32:17;4.40;;;3.43;;
3637;SDS011;1835;50.068;8.154;2022-07-23T07:35:05;4.20;;;3.90;;
3637;SDS011;1835;50.068;8.154;2022-07-23T07:37:35;3.80;;;3.27;;
3637;SDS011;1835;50.068;8.154;2022-07-23T07:40:03;3.97;;;3.50;;
3637;SDS011;1835;50.068;8.154;2022-07-23T07:42:32;3.60;;;3.30;;
3637;SDS011;1835;50.068;8.154;2022-07-23T07:45:01;4.77;;;3.67;;
3637;SDS011;1835;50.068;8.154;2022-07-23T07:47:30;7.40;;;4.03;;
3637;SDS011;1835;50.068;8.154;2022-07-23T07:49:58;9.03;;;3.10;;
3637;SDS011;1835;50.068;8.154;2022-07-23T07:52:27;3.03;;;2.60;;
3637;SDS011;1835;50.068;8.154;2022-07-23T07:54:55;3.37;;;3.13;;
3637;SDS011;1835;50.068;8.154;2022-07-23T07:57:23;3.70;;;2.47;;
3637;SDS011;1835;50.068;8.154;2022-07-23T07:59:51;5.03;;;3.50;;
3637;SDS011;1835;50.068;8.154;2022-07-23T08:02:23;3.57;;;2.87;;
3637;SDS011;1835;50.068;8.154;2022-07-23T08:04:51;3.47;;;3.27;;
3637;SDS011;1835;50.068;8.154;2022-07-23T08:07:19;4.20;;;2.90;;
3637;SDS011;1835;50.068;8.154;2022-07-23T08:09:47;2.90;;;2.70;;
3637;SDS011;1835;50.068;8.154;2022-07-23T08:12:15;2.97;;;2.77;;
3637;SDS011;1835;50.068;8.154;2022-07-23T08:14:43;3.53;;;2.73;;
3637;SDS011;1835;50.068;8.154;2022-07-23T08:17:11;7.47;;;3.00;;
3637;SDS011;1835;50.068;8.154;2022-07-23T08:19:42;2.83;;;2.67;;
3637;SDS011;1835;50.068;8.154;2022-07-23T08:22:11;5.20;;;3.23;;
3637;SDS011;1835;50.068;8.154;2022-07-23T08:24:39;2.90;;;2.70;;
3637;SDS011;1835;50.068;8.154;2022-07-23T08:27:07;2.93;;;2.83;;
3637;SDS011;1835;50.068;8.154;2022-07-23T08:29:35;3.13;;;2.90;;
3637;SDS011;1835;50.068;8.154;2022-07-23T08:32:04;3.63;;;3.20;;
3637;SDS011;1835;50.068;8.154;2022-07-23T08:34:54;3.27;;;2.97;;
3637;SDS011;1835;50.068;8.154;2022-07-23T08:37:22;3.27;;;3.00;;
3637;SDS011;1835;50.068;8.154;2022-07-23T08:39:50;3.70;;;3.40;;
3637;SDS011;1835;50.068;8.154;2022-07-23T08:42:18;3.00;;;2.77;;
3637;SDS011;1835;50.068;8.154;2022-07-23T08:44:48;3.77;;;3.23;;
3637;SDS011;1835;50.068;8.154;2022-07-23T08:47:17;3.30;;;3.00;;
3637;SDS011;1835;50.068;8.154;2022-07-23T08:49:45;3.80;;;2.53;;
3637;SDS011;1835;50.068;8.154;2022-07-23T08:52:15;3.20;;;3.00;;
3637;SDS011;1835;50.068;8.154;2022-07-23T08:54:45;2.80;;;2.60;;
3637;SDS011;1835;50.068;8.154;2022-07-23T08:57:13;3.03;;;2.87;;
3637;SDS011;1835;50.068;8.154;2022-07-23T08:59:42;4.30;;;2.90;;
3637;SDS011;1835;50.068;8.154;2022-07-23T09:02:11;2.83;;;2.73;;
3637;SDS011;1835;50.068;8.154;2022-07-23T09:04:40;4.83;;;2.83;;
3637;SDS011;1835;50.068;8.154;2022-07-23T09:07:08;6.40;;;3.77;;
3637;SDS011;1835;50.068;8.154;2022-07-23T09:09:38;4.03;;;3.67;;
3637;SDS011;1835;50.068;8.154;2022-07-23T09:12:07;3.70;;;3.17;;
3637;SDS011;1835;50.068;8.154;2022-07-23T09:14:38;3.50;;;3.30;;
3637;SDS011;1835;50.068;8.154;2022-07-23T09:17:09;4.00;;;3.23;;
3637;SDS011;1835;50.068;8.154;2022-07-23T09:19:42;4.13;;;3.83;;
3637;SDS011;1835;50.068;8.154;2022-07-23T09:25:06;4.23;;;3.93;;
3637;SDS011;1835;50.068;8.154;2022-07-23T09:27:52;3.40;;;3.10;;
3637;SDS011;1835;50.068;8.154;2022-07-23T09:30:22;5.93;;;3.20;;
3637;SDS011;1835;50.068;8.154;2022-07-23T09:33:06;3.80;;;3.50;;
3637;SDS011;1835;50.068;8.154;2022-07-23T09:35:48;4.43;;;3.27;;
3637;SDS011;1835;50.068;8.154;2022-07-23T09:38:18;3.50;;;3.20;;
3637;SDS011;1835;50.068;8.154;2022-07-23T09:43:43;4.33;;;4.03;;
3637;SDS011;1835;50.068;8.154;2022-07-23T09:46:18;5.00;;;4.30;;
3637;SDS011;1835;50.068;8.154;2022-07-23T09:48:50;7.13;;;4.80;;
3637;SDS011;1835;50.068;8.154;2022-07-23T09:51:19;5.10;;;4.53;;
3637;SDS011;1835;50.068;8.154;2022-07-23T09:53:52;4.67;;;4.00;;
3637;SDS011;1835;50.068;8.154;2022-07-23T09:56:20;6.23;;;4.67;;
3637;SDS011;1835;50.068;8.154;2022-07-23T09:58:54;6.07;;;4.33;;
3637;SDS011;1835;50.068;8.154;2022-07-23T10:01:30;4.03;;;3.67;;
3637;SDS011;1835;50.068;8.154;2022-07-23T10:03:59;4.57;;;3.70;;
3637;SDS011;1835;50.068;8.154;2022-07-23T10:06:29;4.73;;;3.80;;
3637;SDS011;1835;50.068;8.154;2022-07-23T10:08:58;3.90;;;3.50;;
3637;SDS011;1835;50.068;8.154;2022-07-23T10:11:29;8.23;;;4.53;;
3637;SDS011;1835;50.068;8.154;2022-07-23T10:14:00;4.10;;;3.80;;
3637;SDS011;1835;50.068;8.154;2022-07-23T10:16:31;4.43;;;3.60;;
3637;SDS011;1835;50.068;8.154;2022-07-23T10:18:59;4.70;;;3.43;;
3637;SDS011;1835;50.068;8.154;2022-07-23T10:21:30;3.40;;;3.20;;
3637;SDS011;1835;50.068;8.154;2022-07-23T10:24:15;3.33;;;3.13;;
3637;SDS011;1835;50.068;8.154;2022-07-23T10:26:54;4.30;;;3.37;;
3637;SDS011;1835;50.068;8.154;2022-07-23T10:29:42;4.30;;;3.70;;
3637;SDS011;1835;50.068;8.154;2022-07-23T10:32:17;3.83;;;3.53;;
3637;SDS011;1835;50.068;8.154;2022-07-23T10:34:56;3.43;;;2.90;;
3637;SDS011;1835;50.068;8.154;2022-07-23T10:37:32;3.37;;;3.10;;
3637;SDS011;1835;50.068;8.154;2022-07-23T10:40:08;3.77;;;3.47;;
3637;SDS011;1835;50.068;8.154;2022-07-23T10:42:43;3.23;;;3.03;;
3637;SDS011;1835;50.068;8.154;2022-07-23T10:45:24;3.87;;;3.40;;
3637;SDS011;1835;50.068;8.154;2022-07-23T10:47:56;4.10;;;3.30;;
3637;SDS011;1835;50.068;8.154;2022-07-23T10:50:41;3.63;;;3.30;;
3637;SDS011;1835;50.068;8.154;2022-07-23T10:53:11;4.90;;;3.23;;
3637;SDS011;1835;50.068;8.154;2022-07-23T10:55:45;4.13;;;3.40;;
3637;SDS011;1835;50.068;8.154;2022-07-23T10:58:17;3.93;;;3.47;;
3637;SDS011;1835;50.068;8.154;2022-07-23T11:00:49;5.13;;;3.40;;
3637;SDS011;1835;50.068;8.154;2022-07-23T11:03:28;4.30;;;3.40;;
3637;SDS011;1835;50.068;8.154;2022-07-23T11:06:03;3.40;;;3.10;;
3637;SDS011;1835;50.068;8.154;2022-07-23T11:08:33;4.33;;;3.20;;
3637;SDS011;1835;50.068;8.154;2022-07-23T11:11:08;4.40;;;3.53;;
3637;SDS011;1835;50.068;8.154;2022-07-23T11:13:39;3.87;;;3.57;;
3637;SDS011;1835;50.068;8.154;2022-07-23T11:16:17;3.60;;;3.30;;
3637;SDS011;1835;50.068;8.154;2022-07-23T11:19:04;3.33;;;3.10;;
3637;SDS011;1835;50.068;8.154;2022-07-23T11:21:46;3.47;;;3.27;;
3637;SDS011;1835;50.068;8.154;2022-07-23T11:24:21;8.20;;;3.40;;
3637;SDS011;1835;50.068;8.154;2022-07-23T11:26:56;3.37;;;3.13;;
3637;SDS011;1835;50.068;8.154;2022-07-23T11:29:43;6.57;;;3.60;;
3637;SDS011;1835;50.068;8.154;2022-07-23T11:32:31;4.67;;;4.23;;
3637;SDS011;1835;50.068;8.154;2022-07-23T11:35:18;3.60;;;3.30;;
3637;SDS011;1835;50.068;8.154;2022-07-23T11:37:49;5.27;;;4.17;;
3637;SDS011;1835;50.068;8.154;2022-07-23T11:40:25;3.37;;;3.17;;
3637;SDS011;1835;50.068;8.154;2022-07-23T11:42:55;3.53;;;3.33;;
3637;SDS011;1835;50.068;8.154;2022-07-23T11:45:29;3.87;;;3.60;;
3637;SDS011;1835;50.068;8.154;2022-07-23T11:48:02;12.40;;;3.83;;
3637;SDS011;1835;50.068;8.154;2022-07-23T11:50:32;4.07;;;3.77;;
3637;SDS011;1835;50.068;8.154;2022-07-23T11:53:00;5.80;;;4.77;;
3637;SDS011;1835;50.068;8.154;2022-07-23T11:55:29;4.13;;;3.83;;
3637;SDS011;1835;50.068;8.154;2022-07-23T11:57:58;4.07;;;3.73;;
3637;SDS011;1835;50.068;8.154;2022-07-23T12:00:30;4.70;;;4.20;;
3637;SDS011;1835;50.068;8.154;2022-07-23T12:03:07;4.00;;;3.77;;
3637;SDS011;1835;50.068;8.154;2022-07-23T12:05:37;6.30;;;3.70;;
3637;SDS011;1835;50.068;8.154;2022-07-23T12:08:06;4.57;;;4.17;;
3637;SDS011;1835;50.068;8.154;2022-07-23T12:10:37;4.80;;;3.70;;
3637;SDS011;1835;50.068;8.154;2022-07-23T12:13:08;7.50;;;3.77;;
3637;SDS011;1835;50.068;8.154;2022-07-23T12:15:39;4.53;;;4.00;;
3637;SDS011;1835;50.068;8.154;2022-07-23T12:18:11;3.80;;;3.50;;
3637;SDS011;1835;50.068;8.154;2022-07-23T12:20:42;4.70;;;4.20;;
3637;SDS011;1835;50.068;8.154;2022-07-23T12:23:13;5.57;;;4.40;;
3637;SDS011;1835;50.068;8.154;2022-07-23T12:25:46;5.63;;;5.03;;
3637;SDS011;1835;50.068;8.154;2022-07-23T12:28:18;4.63;;;4.23;;
3637;SDS011;1835;50.068;8.154;2022-07-23T12:30:49;6.23;;;4.43;;
3637;SDS011;1835;50.068;8.154;2022-07-23T12:33:22;8.37;;;4.20;;
3637;SDS011;1835;50.068;8.154;2022-07-23T12:35:54;3.83;;;3.63;;
3637;SDS011;1835;50.068;8.154;2022-07-23T12:38:24;6.27;;;4.70;;
3637;SDS011;1835;50.068;8.154;2022-07-23T12:40:55;3.97;;;3.70;;
3637;SDS011;1835;50.068;8.154;2022-07-23T12:43:25;4.80;;;3.87;;
3637;SDS011;1835;50.068;8.154;2022-07-23T12:45:56;5.37;;;4.53;;
3637;SDS011;1835;50.068;8.154;2022-07-23T12:48:34;6.00;;;4.40;;
3637;SDS011;1835;50.068;8.154;2022-07-23T12:51:05;4.93;;;4.20;;
3637;SDS011;1835;50.068;8.154;2022-07-23T12:53:37;4.50;;;4.10;;
3637;SDS011;1835;50.068;8.154;2022-07-23T12:56:09;4.20;;;3.73;;
3637;SDS011;1835;50.068;8.154;2022-07-23T12:58:45;3.93;;;3.63;;
3637;SDS011;1835;50.068;8.154;2022-07-23T13:01:24;4.03;;;3.63;;
3637;SDS011;1835;50.068;8.154;2022-07-23T13:03:57;4.03;;;3.73;;
3637;SDS011;1835;50.068;8.154;2022-07-23T13:06:38;4.50;;;4.10;;
3637;SDS011;1835;50.068;8.154;2022-07-23T13:09:10;6.93;;;4.40;;
3637;SDS011;1835;50.068;8.154;2022-07-23T13:11:41;17.53;;;6.13;;
3637;SDS011;1835;50.068;8.154;2022-07-23T13:14:10;4.67;;;3.97;;
3637;SDS011;1835;50.068;8.154;2022-07-23T13:16:39;9.23;;;4.03;;
3637;SDS011;1835;50.068;8.154;2022-07-23T13:19:10;6.90;;;3.47;;
3637;SDS011;1835;50.068;8.154;2022-07-23T13:21:40;4.53;;;4.07;;
3637;SDS011;1835;50.068;8.154;2022-07-23T13:24:10;6.43;;;5.00;;
3637;SDS011;1835;50.068;8.154;2022-07-23T13:26:39;3.93;;;3.63;;
3637;SDS011;1835;50.068;8.154;2022-07-23T13:29:08;5.57;;;3.90;;
3637;SDS011;1835;50.068;8.154;2022-07-23T13:31:37;6.20;;;4.07;;
3637;SDS011;1835;50.068;8.154;2022-07-23T13:34:06;8.10;;;3.97;;
3637;SDS011;1835;50.068;8.154;2022-07-23T13:36:36;4.03;;;3.73;;
3637;SDS011;1835;50.068;8.154;2022-07-23T13:39:05;5.73;;;4.70;;
3637;SDS011;1835;50.068;8.154;2022-07-23T13:41:34;4.83;;;4.43;;
3637;SDS011;1835;50.068;8.154;2022-07-23T13:44:04;5.90;;;4.87;;
3637;SDS011;1835;50.068;8.154;2022-07-23T13:46:33;7.13;;;3.87;;
3637;SDS011;1835;50.068;8.154;2022-07-23T13:49:02;4.33;;;3.97;;
3637;SDS011;1835;50.068;8.154;2022-07-23T13:51:34;4.90;;;4.33;;
3637;SDS011;1835;50.068;8.154;2022-07-23T13:54:05;7.00;;;3.80;;
3637;SDS011;1835;50.068;8.154;2022-07-23T13:56:34;4.60;;;3.77;;
3637;SDS011;1835;50.068;8.154;2022-07-23T13:59:02;5.33;;;3.73;;
3637;SDS011;1835;50.068;8.154;2022-07-23T14:01:32;4.17;;;3.80;;
3637;SDS011;1835;50.068;8.154;2022-07-23T14:04:15;6.33;;;3.30;;
3637;SDS011;1835;50.068;8.154;2022-07-23T14:06:46;3.80;;;3.50;;
3637;SDS011;1835;50.068;8.154;2022-07-23T14:09:19;5.33;;;3.93;;
3637;SDS011;1835;50.068;8.154;2022-07-23T14:11:48;6.40;;;3.33;;
3637;SDS011;1835;50.068;8.154;2022-07-23T14:14:17;5.00;;;3.83;;
3637;SDS011;1835;50.068;8.154;2022-07-23T14:16:46;3.70;;;3.30;;
3637;SDS011;1835;50.068;8.154;2022-07-23T14:19:14;8.17;;;3.67;;
3637;SDS011;1835;50.068;8.154;2022-07-23T14:21:59;4.40;;;3.37;;
3637;SDS011;1835;50.068;8.154;2022-07-23T14:24:27;3.97;;;2.83;;
3637;SDS011;1835;50.068;8.154;2022-07-23T14:26:59;4.17;;;3.40;;
3637;SDS011;1835;50.068;8.154;2022-07-23T14:29:28;5.57;;;3.67;;
3637;SDS011;1835;50.068;8.154;2022-07-23T14:31:57;6.67;;;3.40;;
3637;SDS011;1835;50.068;8.154;2022-07-23T14:34:27;3.37;;;3.13;;
3637;SDS011;1835;50.068;8.154;2022-07-23T14:36:56;3.93;;;2.90;;
3637;SDS011;1835;50.068;8.154;2022-07-23T14:39:26;5.10;;;2.60;;
3637;SDS011;1835;50.068;8.154;2022-07-23T14:41:55;3.47;;;2.60;;
3637;SDS011;1835;50.068;8.154;2022-07-23T14:44:24;6.27;;;3.47;;
3637;SDS011;1835;50.068;8.154;2022-07-23T14:46:53;3.33;;;3.03;;
3637;SDS011;1835;50.068;8.154;2022-07-23T14:49:22;4.93;;;3.37;;
3637;SDS011;1835;50.068;8.154;2022-07-23T14:51:53;6.53;;;2.97;;
3637;SDS011;1835;50.068;8.154;2022-07-23T14:54:23;3.13;;;3.00;;
3637;SDS011;1835;50.068;8.154;2022-07-23T14:56:52;3.17;;;2.97;;
3637;SDS011;1835;50.068;8.154;2022-07-23T14:59:21;2.73;;;2.53;;
3637;SDS011;1835;50.068;8.154;2022-07-23T15:01:50;3.43;;;3.13;;
3637;SDS011;1835;50.068;8.154;2022-07-23T15:04:19;3.27;;;2.93;;
3637;SDS011;1835;50.068;8.154;2022-07-23T15:07:03;3.10;;;2.87;;
3637;SDS011;1835;50.068;8.154;2022-07-23T15:09:33;4.53;;;3.00;;
3637;SDS011;1835;50.068;8.154;2022-07-23T15:12:01;3.80;;;3.33;;
3637;SDS011;1835;50.068;8.154;2022-07-23T15:14:33;2.73;;;2.57;;
3637;SDS011;1835;50.068;8.154;2022-07-23T15:17:01;3.37;;;3.10;;
3637;SDS011;1835;50.068;8.154;2022-07-23T15:19:29;3.40;;;3.00;;
3637;SDS011;1835;50.068;8.154;2022-07-23T15:21:58;3.17;;;2.90;;
3637;SDS011;1835;50.068;8.154;2022-07-23T15:24:27;2.83;;;2.57;;
3637;SDS011;1835;50.068;8.154;2022-07-23T15:26:57;7.33;;;2.90;;
3637;SDS011;1835;50.068;8.154;2022-07-23T15:29:25;3.30;;;3.00;;
3637;SDS011;1835;50.068;8.154;2022-07-23T15:31:54;2.53;;;2.37;;
3637;SDS011;1835;50.068;8.154;2022-07-23T15:34:24;3.27;;;2.97;;
3637;SDS011;1835;50.068;8.154;2022-07-23T15:36:53;18.33;;;2.70;;
3637;SDS011;1835;50.068;8.154;2022-07-23T15:39:21;8.20;;;4.13;;